Weather reports worldwide

Advertisment
Besancon, France (7288): temperature & dewpoint: 04.12.2018 11:00:00 - 10.12.2018 11:00:00 (CET)Besancon, France (7288): temperature 5cm: 04.12.2018 11:00:00 - 10.12.2018 11:00:00 (CET)Besancon, France (7288): temperature -20cm & temperature -100cm: 04.12.2018 11:00:00 - 10.12.2018 11:00:00 (CET)Besancon, France (7288): wind speed & gusts: 04.12.2018 11:00:00 - 10.12.2018 11:00:00 (CET)Besancon, France (7288): wind direction: 04.12.2018 11:00:00 - 10.12.2018 11:00:00 (CET)Besancon, France (7288): reduced air pressure: 04.12.2018 11:00:00 - 10.12.2018 11:00:00 (CET)Besancon, France (7288): sunshine duration: 04.12.2018 11:00:00 - 10.12.2018 11:00:00 (CET)Besancon, France (7288): precipitation: 04.12.2018 11:00:00 - 10.12.2018 11:00:00 (CET)
Date & Time tt [°C] td [°C] tt 5cm [°C] tt -20cm [°C] tt -100cm [°C] ff [km/h] ff [kn] fx [km/h] fx [kn] dd ppp [hPa] sd [min] rr [mm]
10.12.2018 11:00:00 - - - - - - - - - - - - -
10.12.2018 10:00:00 5,6 4,9 5,1 8,5 10,9 5 3 13 7 WSW 1027,9 0 0,2
10.12.2018 09:00:00 5,3 4,6 4,6 8,5 10,9 4 2 10 5 SW 1027,6 0 0,0
10.12.2018 08:00:00 5,1 4,2 4,7 8,6 10,9 4 2 11 6 WSW 1027,1 0 2,0
10.12.2018 07:00:00 5,4 4,4 4,6 8,6 10,9 4 2 12 7 WSW 1026,6 0 0,6
10.12.2018 06:00:00 5,3 4,4 4,1 8,6 10,9 6 3 13 7 WSW 1026,1 0 0,0
10.12.2018 05:00:00 5,4 4,4 4,1 8,7 10,9 5 3 11 6 WSW 1025,9 0 0,0
10.12.2018 04:00:00 6,0 4,8 5,1 8,7 10,9 6 3 24 13 WSW 1025,6 0 0,0
10.12.2018 03:00:00 5,8 4,8 4,6 8,8 10,9 8 5 14 8 SW 1025,2 0 0,0
10.12.2018 02:00:00 6,1 5,1 5,3 8,8 10,9 7 4 14 7 SW 1024,8 0 0,0
10.12.2018 01:00:00 6,2 5,0 5,1 8,8 11,0 4 2 17 9 WSW 1024,1 0 0,2
10.12.2018 00:00:00 6,5 4,8 5,5 8,8 10,9 6 4 21 11 WNW 1023,6 0 0,6
09.12.2018 23:00:00 6,5 5,1 4,6 8,8 10,9 6 4 32 17 N 1022,6 0 2,6
09.12.2018 22:00:00 7,4 6,2 6,8 8,9 10,9 8 4 19 11 WSW 1021,0 0 0,6
09.12.2018 21:00:00 7,6 6,1 6,7 8,9 11,0 8 4 30 16 WSW 1019,9 0 0,2
09.12.2018 20:00:00 7,4 6,5 6,8 8,9 10,9 16 9 34 18 SW 1018,8 0 0,2
09.12.2018 19:00:00 7,3 6,2 6,5 8,9 10,9 12 7 25 13 SW 1018,2 0 0,2
09.12.2018 18:00:00 7,1 5,9 6,5 8,9 10,9 9 5 35 19 WSW 1017,5 0 1,8
09.12.2018 17:00:00 8,0 5,6 6,7 8,9 11,0 15 8 43 23 WSW 1016,0 0 0,2
09.12.2018 16:00:00 8,2 5,3 6,9 8,9 11,0 19 11 56 30 SW 1014,9 0 0,0
09.12.2018 15:00:00 8,6 4,8 6,6 8,9 11,0 20 11 46 25 WSW 1014,4 0 0,2
09.12.2018 14:00:00 7,8 5,3 6,6 8,9 10,9 18 10 34 19 WSW 1014,8 0 0,2
09.12.2018 13:00:00 7,7 5,5 6,4 8,9 10,9 17 9 44 24 SW 1014,7 0 0,2
09.12.2018 12:00:00 7,5 4,8 7,4 9,0 11,0 19 11 36 20 SW 1015,0 0 0,0
09.12.2018 11:00:00 7,7 4,6 7,0 8,9 11,0 16 9 41 22 SW 1015,5 12 0,0
09.12.2018 10:00:00 7,8 4,6 6,9 8,9 10,9 17 9 34 18 SW 1014,9 0 0,0
09.12.2018 09:00:00 7,7 5,7 6,7 9,0 11,0 14 8 25 14 SW 1014,5 0 0,0
09.12.2018 08:00:00 7,6 5,1 5,4 9,0 11,0 12 7 24 13 SW 1013,9 0 0,0
09.12.2018 07:00:00 6,6 4,4 5,4 9,0 10,9 15 8 68 37 W 1013,7 0 0,6
09.12.2018 06:00:00 8,5 6,6 7,3 9,0 11,0 18 10 50 27 SW 1012,1 0 0,4
09.12.2018 05:00:00 8,8 6,9 8,4 9,0 11,0 23 12 50 27 SW 1011,8 0 0,0
09.12.2018 04:00:00 9,2 7,0 8,2 9,0 11,0 26 14 50 27 SW 1011,5 0 0,0
09.12.2018 03:00:00 9,1 7,5 7,9 9,0 10,9 22 12 59 32 SW 1012,1 0 3,8
09.12.2018 02:00:00 9,1 7,4 8,0 9,0 11,0 32 17 61 33 SW 1011,4 0 0,6
09.12.2018 01:00:00 8,9 7,3 7,7 9,0 11,0 26 14 57 31 SW 1011,9 0 0,2
09.12.2018 00:00:00 8,6 7,2 7,4 9,0 10,9 27 15 58 32 SW 1012,7 0 0,2
08.12.2018 23:00:00 8,0 6,8 7,1 9,0 11,0 24 13 58 31 SW 1014,2 0 0,2
08.12.2018 22:00:00 8,0 6,3 7,1 9,0 11,0 24 13 53 28 SW 1014,8 0 0,2
08.12.2018 21:00:00 8,1 6,2 6,8 9,1 11,0 25 14 62 34 SW 1015,4 0 0,0
08.12.2018 20:00:00 7,8 5,9 6,6 9,0 10,9 22 12 52 28 SW 1016,4 0 0,2
08.12.2018 19:00:00 7,4 5,7 6,5 9,1 10,9 25 14 54 29 SW 1017,4 0 0,0
08.12.2018 18:00:00 7,3 5,6 6,3 9,1 10,9 11 6 42 23 WSW 1018,7 0 0,0
08.12.2018 17:00:00 7,1 5,6 6,2 9,1 11,0 18 10 41 22 SSW 1019,2 0 0,0
08.12.2018 16:00:00 7,1 5,4 6,2 9,1 10,9 17 9 41 22 SW 1019,7 0 0,0
08.12.2018 15:00:00 7,0 5,5 6,2 9,1 11,0 20 11 42 23 SW 1019,8 0 0,6
08.12.2018 14:00:00 7,3 4,9 7,2 9,1 10,9 24 13 52 28 SW 1020,0 0 0,0
08.12.2018 13:00:00 7,5 4,4 7,1 9,2 10,9 29 15 57 31 SW 1020,3 0 0,0
08.12.2018 12:00:00 7,1 4,6 6,5 9,2 10,9 22 12 53 28 SW 1020,7 0 0,0
08.12.2018 11:00:00 6,7 4,5 5,8 9,2 10,9 18 10 46 25 SW 1020,9 0 0,0
08.12.2018 10:00:00 6,5 4,0 6,0 9,3 10,9 22 12 47 26 SW 1020,7 0 0,0
08.12.2018 09:00:00 6,4 3,7 5,8 9,4 10,9 18 10 42 23 SW 1020,8 0 0,0
08.12.2018 08:00:00 6,4 3,5 5,9 9,4 10,9 20 11 43 23 SW 1020,7 0 0,0
08.12.2018 07:00:00 6,4 3,4 5,8 9,5 10,9 21 11 41 22 SW 1020,9 0 0,0
08.12.2018 06:00:00 6,1 3,3 5,5 9,5 10,9 18 10 37 20 SW 1020,8 0 0,0
08.12.2018 05:00:00 5,8 3,3 5,5 9,6 10,9 18 10 39 21 SW 1020,8 0 0,0
08.12.2018 04:00:00 6,0 3,5 5,6 9,6 10,9 15 8 34 19 SW 1021,1 0 0,0
08.12.2018 03:00:00 6,1 3,4 5,3 9,7 10,9 19 10 34 19 SW 1020,8 0 0,0
08.12.2018 02:00:00 6,0 3,5 5,1 9,8 10,9 13 7 31 17 SW 1020,7 0 0,0
08.12.2018 01:00:00 6,1 3,4 4,8 9,8 10,9 14 8 27 15 SW 1020,5 0 0,0
08.12.2018 00:00:00 5,6 3,6 4,5 9,8 10,9 10 5 22 12 SW 1020,2 0 0,0
07.12.2018 23:00:00 5,6 3,8 4,6 9,9 10,9 11 6 21 12 SW 1019,5 0 0,0
07.12.2018 22:00:00 5,7 3,7 4,5 9,9 10,9 10 5 57 31 SW 1017,9 0 1,4
07.12.2018 21:00:00 9,1 6,9 7,8 9,9 10,9 18 10 42 23 WSW 1015,5 0 0,4
07.12.2018 20:00:00 10,0 7,6 8,6 9,9 10,9 22 12 48 26 SW 1014,0 0 1,4
07.12.2018 19:00:00 10,0 8,8 9,0 9,9 10,9 19 11 46 25 SW 1012,9 0 1,4
07.12.2018 18:00:00 10,2 8,1 9,0 9,9 10,9 21 12 52 28 SW 1012,2 0 0,4
07.12.2018 17:00:00 10,8 7,5 9,2 9,9 10,9 13 7 37 20 SSW 1012,5 0 0,0
07.12.2018 16:00:00 10,9 7,8 10,5 9,9 10,9 15 8 35 19 SW 1013,7 0 0,0
07.12.2018 15:00:00 11,0 7,9 11,0 9,9 10,9 16 9 39 21 SW 1014,3 0 0,0
07.12.2018 14:00:00 10,7 8,3 10,3 9,8 10,9 15 8 34 18 SW 1015,5 0 0,0
07.12.2018 13:00:00 10,6 8,0 10,6 9,8 10,9 12 6 25 14 SW 1017,3 0 0,0
07.12.2018 12:00:00 10,6 7,5 10,6 9,8 10,9 14 8 29 16 SW 1018,6 0 0,0
07.12.2018 11:00:00 10,7 7,2 10,1 9,9 10,9 15 8 30 16 SW 1019,6 0 0,0
07.12.2018 10:00:00 10,1 7,2 9,5 9,9 10,9 8 5 27 14 SSW 1020,0 0 0,0
07.12.2018 09:00:00 9,9 7,3 9,0 9,9 10,9 12 6 34 18 SSW 1020,7 0 0,0
07.12.2018 08:00:00 10,1 7,7 8,9 9,9 10,9 15 8 30 16 SW 1021,3 0 0,0
07.12.2018 07:00:00 10,0 8,3 9,0 9,9 10,9 9 5 28 15 SSW 1021,5 0 0,0
07.12.2018 06:00:00 9,9 9,0 9,2 9,8 10,9 10 5 26 14 SSW 1022,1 0 0,4
07.12.2018 05:00:00 10,0 9,1 9,6 9,9 10,9 13 7 27 15 SW 1022,6 0 0,0
07.12.2018 04:00:00 10,4 9,3 9,7 9,8 10,9 13 7 32 18 SW 1023,0 0 0,0
07.12.2018 03:00:00 10,5 9,6 9,9 9,8 10,9 11 6 26 14 SW 1023,5 0 0,2
07.12.2018 02:00:00 10,7 9,6 10,3 9,8 10,9 13 7 28 15 SW 1024,0 0 0,0
07.12.2018 01:00:00 11,1 9,8 10,7 9,8 10,9 13 7 28 15 SW 1024,3 0 0,0
07.12.2018 00:00:00 11,1 10,0 10,6 9,8 10,9 14 8 29 15 SW 1024,5 0 0,0
06.12.2018 23:00:00 11,3 10,2 10,8 9,7 10,9 13 7 26 14 SW 1024,4 0 0,0
06.12.2018 22:00:00 11,3 10,2 10,8 9,7 10,9 14 7 26 14 SW 1024,4 0 0,0
06.12.2018 21:00:00 11,4 10,5 10,9 9,7 10,9 12 7 27 15 SW 1024,3 0 0,0
06.12.2018 20:00:00 11,5 10,6 10,8 9,6 10,9 10 5 22 12 SW 1024,5 0 0,0
06.12.2018 19:00:00 11,6 10,5 10,9 9,6 10,9 12 7 25 14 SW 1024,7 0 0,0
06.12.2018 18:00:00 11,6 10,3 10,8 9,6 10,9 10 5 21 11 SSW 1024,0 0 0,0
06.12.2018 17:00:00 11,5 10,4 10,8 9,5 10,9 3 2 16 9 SSW 1023,4 0 0,0
06.12.2018 16:00:00 11,6 10,5 11,0 9,4 10,9 6 4 16 9 SSW 1023,3 0 0,0
06.12.2018 15:00:00 11,6 10,5 11,4 9,4 10,9 8 5 21 11 SW 1023,3 0 0,0
06.12.2018 14:00:00 11,3 10,5 10,9 9,3 10,9 10 5 21 11 SW 1023,4 0 0,2
06.12.2018 13:00:00 11,2 10,4 11,1 9,2 10,9 11 6 21 11 SW 1023,4 0 0,0
06.12.2018 12:00:00 10,9 10,1 10,7 9,2 10,9 9 5 18 10 SW 1023,3 0 0,6
06.12.2018 11:00:00 10,7 9,8 10,4 9,2 10,9 9 5 18 10 SW 1023,3 0 0,2
06.12.2018 10:00:00 10,4 9,6 9,7 9,2 10,9 7 4 19 10 SSW 1022,8 0 0,0
06.12.2018 09:00:00 10,0 9,2 8,9 9,2 10,9 4 2 16 9 SSW 1022,0 11 0,0
06.12.2018 08:00:00 10,0 9,2 9,3 9,1 10,9 10 5 29 16 SSW 1021,0 0 1,4
06.12.2018 07:00:00 10,0 9,1 9,5 9,1 10,9 14 7 30 16 SW 1020,5 0 2,0
06.12.2018 06:00:00 10,0 9,1 9,3 9,1 10,9 14 8 26 14 SW 1020,3 0 1,2
06.12.2018 05:00:00 10,1 8,7 8,7 9,1 10,9 10 6 26 14 SW 1020,2 0 0,0
06.12.2018 04:00:00 9,4 8,2 8,5 9,1 10,9 18 10 37 20 SW 1020,5 0 1,6
06.12.2018 03:00:00 9,5 7,8 8,4 9,2 10,9 13 7 35 19 SW 1020,4 0 2,0
06.12.2018 02:00:00 11,3 6,4 9,2 9,2 10,9 17 9 34 18 SW 1019,8 0 0,0
06.12.2018 01:00:00 9,9 6,1 7,1 9,2 10,9 6 4 22 12 SSW 1019,7 0 0,0
06.12.2018 00:00:00 8,5 6,1 6,5 9,2 10,9 5 3 17 9 S 1020,4 0 0,0
05.12.2018 23:00:00 7,7 6,5 5,7 9,2 10,9 2 1 11 6 SSW 1019,8 0 0,0
05.12.2018 22:00:00 8,0 6,8 6,5 9,2 10,9 0 0 9 5 N 1020,8 0 0,0
05.12.2018 21:00:00 7,8 6,9 6,3 9,3 10,9 0 0 6 3 N 1020,3 0 0,0
05.12.2018 20:00:00 7,8 6,9 6,5 9,2 10,8 3 2 5 3 NW 1020,7 0 0,0
05.12.2018 19:00:00 7,9 6,8 6,2 9,2 10,8 0 0 4 2 N 1020,4 0 0,0
05.12.2018 18:00:00 8,0 6,5 6,1 9,2 10,9 0 0 4 2 N 1021,1 0 0,0
05.12.2018 17:00:00 8,6 6,6 7,2 9,1 10,8 0 0 5 3 N 1021,5 0 0,0
05.12.2018 16:00:00 9,3 6,7 9,2 9,1 10,8 3 1 8 5 WSW 1021,7 0 0,0
05.12.2018 15:00:00 9,6 7,4 11,0 9,0 10,8 5 3 11 6 WSW 1022,4 9 0,0
05.12.2018 14:00:00 10,0 7,1 11,9 9,0 10,8 6 4 10 5 WSW 1023,0 14 0,0
05.12.2018 13:00:00 10,0 7,2 12,4 8,9 10,8 4 2 8 4 SSW 1023,4 15 0,0
05.12.2018 12:00:00 9,1 7,7 11,4 9,0 10,8 0 0 4 2 N 1024,2 11 0,0
05.12.2018 11:00:00 7,9 7,5 7,3 9,0 10,8 0 0 5 3 N 1024,9 25 0,0
05.12.2018 10:00:00 6,8 6,4 6,5 9,0 10,8 0 0 5 3 N 1025,5 0 0,0
05.12.2018 09:00:00 6,1 5,7 5,2 9,1 10,8 0 0 4 2 N 1025,7 0 0,0
05.12.2018 08:00:00 5,6 5,2 4,9 9,1 10,8 0 0 5 3 N 1026,0 0 0,0
05.12.2018 07:00:00 5,4 5,0 2,4 9,2 10,8 0 0 4 2 N 1025,6 0 0,0
05.12.2018 06:00:00 5,1 4,7 2,1 9,3 10,8 0 0 4 2 N 1025,8 0 0,0
05.12.2018 05:00:00 5,0 4,6 2,4 9,4 10,8 3 1 4 2 NNE 1025,9 0 0,0
05.12.2018 04:00:00 4,8 4,4 0,8 9,5 10,8 3 1 5 3 NE 1025,9 0 0,0
05.12.2018 03:00:00 5,1 4,7 0,9 9,5 10,8 0 0 3 2 N 1026,3 0 0,0
05.12.2018 02:00:00 5,6 5,2 1,3 9,6 10,8 0 0 6 4 N 1026,3 0 0,0
05.12.2018 01:00:00 6,4 6,0 2,1 9,6 10,8 0 0 3 2 N 1025,9 0 0,0
05.12.2018 00:00:00 7,1 6,7 5,2 9,7 10,8 0 0 4 2 N 1026,5 0 0,0
04.12.2018 23:00:00 7,1 6,7 3,1 9,7 10,8 2 1 4 2 NNE 1026,2 0 0,0
04.12.2018 22:00:00 7,5 6,9 3,1 9,7 10,8 2 1 3 2 NNE 1025,8 0 0,0
04.12.2018 21:00:00 8,2 7,6 5,5 9,7 10,8 0 0 3 2 N 1025,7 0 0,0
04.12.2018 20:00:00 8,5 7,9 6,1 9,8 10,8 0 0 4 2 N 1025,6 0 0,0
04.12.2018 19:00:00 8,8 8,2 7,8 9,8 10,8 0 0 3 2 N 1025,4 0 0,0
04.12.2018 18:00:00 8,7 8,1 5,8 9,8 10,8 2 1 4 2 NNE 1024,9 0 0,0
04.12.2018 17:00:00 8,7 7,9 6,5 9,8 10,8 0 0 4 2 N 1024,6 0 0,0
04.12.2018 16:00:00 9,1 8,0 7,9 9,7 10,8 3 1 11 6 S 1024,1 0 0,0
04.12.2018 15:00:00 10,0 8,9 9,7 9,7 10,8 6 3 11 6 SW 1023,5 0 1,0
04.12.2018 14:00:00 10,3 8,9 9,6 9,6 10,8 4 2 11 6 W 1023,1 0 2,0
04.12.2018 13:00:00 11,0 8,9 10,9 9,6 10,7 4 2 17 9 WSW 1022,8 0 0,0
04.12.2018 12:00:00 11,2 8,9 10,8 9,6 10,8 8 4 22 12 WSW 1022,9 11 0,0
04.12.2018 11:00:00 10,1 8,9 9,6 9,6 10,8 10 5 21 11 SW 1022,9 1 0,2

tt = temperature
td = dewpoint
tt 5cm = temperature 5cm
tt -20cm = temperature -20cm
tt -100cm = temperature -100cm
ff = wind speed
fx = gusts
dd = wind direction
ppp = reduced air pressure
sd = sunshine duration
rr = precipitation

Next stations